sensor_id;sensor_type;location;lat;lon;timestamp;P1;durP1;ratioP1;P2;durP2;ratioP2
16928;SDS011;8581;47.334;11.190;2023-06-26T00:01:52;7.23;;;6.53;;
16928;SDS011;8581;47.334;11.190;2023-06-26T00:04:24;6.43;;;5.83;;
16928;SDS011;8581;47.334;11.190;2023-06-26T00:06:56;6.20;;;5.60;;
16928;SDS011;8581;47.334;11.190;2023-06-26T00:09:27;6.20;;;5.50;;
16928;SDS011;8581;47.334;11.190;2023-06-26T00:11:59;6.60;;;6.00;;
16928;SDS011;8581;47.334;11.190;2023-06-26T00:14:30;6.63;;;6.03;;
16928;SDS011;8581;47.334;11.190;2023-06-26T00:17:02;6.67;;;6.07;;
16928;SDS011;8581;47.334;11.190;2023-06-26T00:19:34;6.70;;;6.00;;
16928;SDS011;8581;47.334;11.190;2023-06-26T00:22:05;6.57;;;5.60;;
16928;SDS011;8581;47.334;11.190;2023-06-26T00:24:37;6.50;;;5.90;;
16928;SDS011;8581;47.334;11.190;2023-06-26T00:27:09;6.40;;;5.90;;
16928;SDS011;8581;47.334;11.190;2023-06-26T00:29:40;6.50;;;5.90;;
16928;SDS011;8581;47.334;11.190;2023-06-26T00:32:12;6.33;;;5.83;;
16928;SDS011;8581;47.334;11.190;2023-06-26T00:34:43;6.70;;;6.10;;
16928;SDS011;8581;47.334;11.190;2023-06-26T00:37:15;7.07;;;5.80;;
16928;SDS011;8581;47.334;11.190;2023-06-26T00:39:47;8.53;;;6.30;;
16928;SDS011;8581;47.334;11.190;2023-06-26T00:42:18;6.60;;;6.00;;
16928;SDS011;8581;47.334;11.190;2023-06-26T00:44:50;6.87;;;6.17;;
16928;SDS011;8581;47.334;11.190;2023-06-26T00:47:21;7.10;;;5.90;;
16928;SDS011;8581;47.334;11.190;2023-06-26T00:49:54;6.33;;;5.73;;
16928;SDS011;8581;47.334;11.190;2023-06-26T00:52:25;7.40;;;6.37;;
16928;SDS011;8581;47.334;11.190;2023-06-26T00:54:56;6.20;;;5.70;;
16928;SDS011;8581;47.334;11.190;2023-06-26T00:57:28;6.20;;;5.60;;
16928;SDS011;8581;47.334;11.190;2023-06-26T01:00:00;6.60;;;6.00;;
16928;SDS011;8581;47.334;11.190;2023-06-26T01:02:31;6.10;;;5.60;;
16928;SDS011;8581;47.334;11.190;2023-06-26T01:05:04;6.10;;;5.50;;
16928;SDS011;8581;47.334;11.190;2023-06-26T01:07:37;6.47;;;5.87;;
16928;SDS011;8581;47.334;11.190;2023-06-26T01:10:08;6.53;;;5.93;;
16928;SDS011;8581;47.334;11.190;2023-06-26T01:12:40;6.23;;;5.70;;
16928;SDS011;8581;47.334;11.190;2023-06-26T01:15:12;6.20;;;5.63;;
16928;SDS011;8581;47.334;11.190;2023-06-26T01:17:43;6.10;;;5.60;;
16928;SDS011;8581;47.334;11.190;2023-06-26T01:20:15;6.80;;;6.20;;
16928;SDS011;8581;47.334;11.190;2023-06-26T01:25:49;6.33;;;5.60;;
16928;SDS011;8581;47.334;11.190;2023-06-26T01:28:15;6.20;;;5.70;;
16928;SDS011;8581;47.334;11.190;2023-06-26T01:30:47;6.63;;;6.00;;
16928;SDS011;8581;47.334;11.190;2023-06-26T01:33:18;6.60;;;6.00;;
16928;SDS011;8581;47.334;11.190;2023-06-26T01:35:50;6.80;;;6.20;;
16928;SDS011;8581;47.334;11.190;2023-06-26T01:38:22;6.67;;;6.07;;
16928;SDS011;8581;47.334;11.190;2023-06-26T01:40:54;6.40;;;5.80;;
16928;SDS011;8581;47.334;11.190;2023-06-26T01:43:29;6.20;;;5.60;;
16928;SDS011;8581;47.334;11.190;2023-06-26T01:46:06;6.50;;;5.90;;
16928;SDS011;8581;47.334;11.190;2023-06-26T01:48:39;6.33;;;5.73;;
16928;SDS011;8581;47.334;11.190;2023-06-26T01:51:10;7.87;;;6.20;;
16928;SDS011;8581;47.334;11.190;2023-06-26T01:53:41;6.50;;;5.90;;
16928;SDS011;8581;47.334;11.190;2023-06-26T01:56:14;6.63;;;6.03;;
16928;SDS011;8581;47.334;11.190;2023-06-26T01:58:46;6.93;;;6.00;;
16928;SDS011;8581;47.334;11.190;2023-06-26T02:01:17;7.13;;;6.47;;
16928;SDS011;8581;47.334;11.190;2023-06-26T02:03:48;6.10;;;5.60;;
16928;SDS011;8581;47.334;11.190;2023-06-26T02:06:20;6.03;;;5.53;;
16928;SDS011;8581;47.334;11.190;2023-06-26T02:08:52;6.97;;;6.27;;
16928;SDS011;8581;47.334;11.190;2023-06-26T02:11:23;5.97;;;5.47;;
16928;SDS011;8581;47.334;11.190;2023-06-26T02:13:55;7.47;;;6.77;;
16928;SDS011;8581;47.334;11.190;2023-06-26T02:16:26;6.83;;;6.23;;
16928;SDS011;8581;47.334;11.190;2023-06-26T02:18:58;6.97;;;6.27;;
16928;SDS011;8581;47.334;11.190;2023-06-26T02:21:30;6.13;;;5.63;;
16928;SDS011;8581;47.334;11.190;2023-06-26T02:24:01;7.03;;;6.43;;
16928;SDS011;8581;47.334;11.190;2023-06-26T02:26:33;6.87;;;6.27;;
16928;SDS011;8581;47.334;11.190;2023-06-26T02:29:04;7.03;;;6.37;;
16928;SDS011;8581;47.334;11.190;2023-06-26T02:31:36;6.50;;;5.90;;
16928;SDS011;8581;47.334;11.190;2023-06-26T02:34:07;6.67;;;5.93;;
16928;SDS011;8581;47.334;11.190;2023-06-26T02:36:39;6.93;;;6.30;;
16928;SDS011;8581;47.334;11.190;2023-06-26T02:39:11;6.87;;;6.27;;
16928;SDS011;8581;47.334;11.190;2023-06-26T02:41:43;6.63;;;6.03;;
16928;SDS011;8581;47.334;11.190;2023-06-26T02:44:14;7.20;;;6.10;;
16928;SDS011;8581;47.334;11.190;2023-06-26T02:46:46;6.43;;;5.83;;
16928;SDS011;8581;47.334;11.190;2023-06-26T02:49:17;6.70;;;6.00;;
16928;SDS011;8581;47.334;11.190;2023-06-26T02:51:49;6.57;;;5.97;;
16928;SDS011;8581;47.334;11.190;2023-06-26T02:54:21;6.83;;;6.23;;
16928;SDS011;8581;47.334;11.190;2023-06-26T02:56:52;6.47;;;5.87;;
16928;SDS011;8581;47.334;11.190;2023-06-26T02:59:24;6.87;;;6.27;;
16928;SDS011;8581;47.334;11.190;2023-06-26T03:01:55;7.10;;;6.40;;
16928;SDS011;8581;47.334;11.190;2023-06-26T03:04:27;6.30;;;5.70;;
16928;SDS011;8581;47.334;11.190;2023-06-26T03:06:59;9.07;;;6.77;;
16928;SDS011;8581;47.334;11.190;2023-06-26T03:09:30;6.90;;;6.20;;
16928;SDS011;8581;47.334;11.190;2023-06-26T03:12:02;7.03;;;6.33;;
16928;SDS011;8581;47.334;11.190;2023-06-26T03:14:34;6.33;;;5.83;;
16928;SDS011;8581;47.334;11.190;2023-06-26T03:17:05;6.70;;;6.10;;
16928;SDS011;8581;47.334;11.190;2023-06-26T03:19:37;6.87;;;6.17;;
16928;SDS011;8581;47.334;11.190;2023-06-26T03:22:08;6.83;;;6.23;;
16928;SDS011;8581;47.334;11.190;2023-06-26T03:24:40;7.10;;;6.13;;
16928;SDS011;8581;47.334;11.190;2023-06-26T03:27:12;6.90;;;6.30;;
16928;SDS011;8581;47.334;11.190;2023-06-26T03:29:43;7.17;;;6.47;;
16928;SDS011;8581;47.334;11.190;2023-06-26T03:32:15;6.93;;;6.33;;
16928;SDS011;8581;47.334;11.190;2023-06-26T03:34:46;6.90;;;5.87;;
16928;SDS011;8581;47.334;11.190;2023-06-26T03:37:18;6.40;;;5.83;;
16928;SDS011;8581;47.334;11.190;2023-06-26T03:39:50;6.87;;;6.27;;
16928;SDS011;8581;47.334;11.190;2023-06-26T03:42:21;6.57;;;5.97;;
16928;SDS011;8581;47.334;11.190;2023-06-26T03:44:53;6.33;;;5.73;;
16928;SDS011;8581;47.334;11.190;2023-06-26T03:47:24;6.57;;;5.97;;
16928;SDS011;8581;47.334;11.190;2023-06-26T03:49:56;6.57;;;5.90;;
16928;SDS011;8581;47.334;11.190;2023-06-26T03:52:27;6.90;;;6.20;;
16928;SDS011;8581;47.334;11.190;2023-06-26T03:54:59;6.57;;;5.97;;
16928;SDS011;8581;47.334;11.190;2023-06-26T03:57:31;6.57;;;5.97;;
16928;SDS011;8581;47.334;11.190;2023-06-26T04:00:03;6.50;;;5.73;;
16928;SDS011;8581;47.334;11.190;2023-06-26T04:02:36;6.77;;;6.17;;
16928;SDS011;8581;47.334;11.190;2023-06-26T04:05:07;7.10;;;6.43;;
16928;SDS011;8581;47.334;11.190;2023-06-26T04:07:39;7.77;;;7.07;;
16928;SDS011;8581;47.334;11.190;2023-06-26T04:10:10;7.00;;;6.30;;
16928;SDS011;8581;47.334;11.190;2023-06-26T04:12:42;7.67;;;6.87;;
16928;SDS011;8581;47.334;11.190;2023-06-26T04:15:14;9.30;;;6.70;;
16928;SDS011;8581;47.334;11.190;2023-06-26T04:17:45;6.37;;;5.70;;
16928;SDS011;8581;47.334;11.190;2023-06-26T04:20:17;8.93;;;6.47;;
16928;SDS011;8581;47.334;11.190;2023-06-26T04:22:48;7.17;;;6.47;;
16928;SDS011;8581;47.334;11.190;2023-06-26T04:25:20;8.17;;;6.23;;
16928;SDS011;8581;47.334;11.190;2023-06-26T04:27:52;7.07;;;6.20;;
16928;SDS011;8581;47.334;11.190;2023-06-26T04:30:23;7.23;;;6.53;;
16928;SDS011;8581;47.334;11.190;2023-06-26T04:32:55;8.50;;;6.30;;
16928;SDS011;8581;47.334;11.190;2023-06-26T04:35:26;7.37;;;6.67;;
16928;SDS011;8581;47.334;11.190;2023-06-26T04:37:58;7.50;;;6.70;;
16928;SDS011;8581;47.334;11.190;2023-06-26T04:40:30;6.80;;;6.20;;
16928;SDS011;8581;47.334;11.190;2023-06-26T04:43:01;7.20;;;6.50;;
16928;SDS011;8581;47.334;11.190;2023-06-26T04:45:33;9.77;;;6.17;;
16928;SDS011;8581;47.334;11.190;2023-06-26T04:48:04;7.93;;;6.17;;
16928;SDS011;8581;47.334;11.190;2023-06-26T04:50:36;6.80;;;6.20;;
16928;SDS011;8581;47.334;11.190;2023-06-26T04:53:08;8.20;;;6.97;;
16928;SDS011;8581;47.334;11.190;2023-06-26T04:55:39;6.67;;;6.07;;
16928;SDS011;8581;47.334;11.190;2023-06-26T04:58:11;7.07;;;6.33;;
16928;SDS011;8581;47.334;11.190;2023-06-26T05:00:42;7.43;;;6.73;;
16928;SDS011;8581;47.334;11.190;2023-06-26T05:03:17;10.40;;;6.83;;
16928;SDS011;8581;47.334;11.190;2023-06-26T05:05:46;10.63;;;6.60;;
16928;SDS011;8581;47.334;11.190;2023-06-26T05:08:20;8.53;;;7.30;;
16928;SDS011;8581;47.334;11.190;2023-06-26T05:10:50;8.80;;;6.87;;
16928;SDS011;8581;47.334;11.190;2023-06-26T05:13:21;9.60;;;7.40;;
16928;SDS011;8581;47.334;11.190;2023-06-26T05:15:53;13.20;;;7.30;;
16928;SDS011;8581;47.334;11.190;2023-06-26T05:18:24;7.10;;;6.40;;
16928;SDS011;8581;47.334;11.190;2023-06-26T05:20:56;6.63;;;6.03;;
16928;SDS011;8581;47.334;11.190;2023-06-26T05:23:30;6.97;;;6.37;;
16928;SDS011;8581;47.334;11.190;2023-06-26T05:26:01;7.30;;;6.20;;
16928;SDS011;8581;47.334;11.190;2023-06-26T05:28:34;7.20;;;5.50;;
16928;SDS011;8581;47.334;11.190;2023-06-26T05:31:06;8.00;;;5.47;;
16928;SDS011;8581;47.334;11.190;2023-06-26T05:33:38;6.40;;;5.70;;
16928;SDS011;8581;47.334;11.190;2023-06-26T05:36:10;6.10;;;5.43;;
16928;SDS011;8581;47.334;11.190;2023-06-26T05:38:42;6.07;;;5.47;;
16928;SDS011;8581;47.334;11.190;2023-06-26T05:41:14;7.00;;;5.30;;
16928;SDS011;8581;47.334;11.190;2023-06-26T05:43:46;7.90;;;5.50;;
16928;SDS011;8581;47.334;11.190;2023-06-26T05:46:18;7.43;;;5.60;;
16928;SDS011;8581;47.334;11.190;2023-06-26T05:48:50;6.23;;;5.63;;
16928;SDS011;8581;47.334;11.190;2023-06-26T05:51:22;7.43;;;5.70;;
16928;SDS011;8581;47.334;11.190;2023-06-26T05:53:54;11.97;;;6.10;;
16928;SDS011;8581;47.334;11.190;2023-06-26T05:56:26;6.40;;;5.50;;
16928;SDS011;8581;47.334;11.190;2023-06-26T05:58:57;7.53;;;5.73;;
16928;SDS011;8581;47.334;11.190;2023-06-26T06:01:29;7.33;;;5.57;;
16928;SDS011;8581;47.334;11.190;2023-06-26T06:04:00;6.03;;;5.43;;
16928;SDS011;8581;47.334;11.190;2023-06-26T06:06:32;5.97;;;5.40;;
16928;SDS011;8581;47.334;11.190;2023-06-26T06:09:04;7.63;;;5.80;;
16928;SDS011;8581;47.334;11.190;2023-06-26T06:11:35;27.10;;;6.77;;
16928;SDS011;8581;47.334;11.190;2023-06-26T06:14:07;6.10;;;5.53;;
16928;SDS011;8581;47.334;11.190;2023-06-26T06:16:38;15.50;;;6.43;;
16928;SDS011;8581;47.334;11.190;2023-06-26T06:19:10;8.60;;;5.83;;
16928;SDS011;8581;47.334;11.190;2023-06-26T06:21:42;6.60;;;5.50;;
16928;SDS011;8581;47.334;11.190;2023-06-26T06:24:13;10.23;;;6.00;;
16928;SDS011;8581;47.334;11.190;2023-06-26T06:26:45;6.15;;;5.55;;
16928;SDS011;8581;47.334;11.190;2023-06-26T06:29:16;6.43;;;5.83;;
16928;SDS011;8581;47.334;11.190;2023-06-26T06:31:48;6.53;;;5.35;;
16928;SDS011;8581;47.334;11.190;2023-06-26T06:34:20;6.25;;;5.35;;
16928;SDS011;8581;47.334;11.190;2023-06-26T06:36:51;5.90;;;5.35;;
16928;SDS011;8581;47.334;11.190;2023-06-26T06:39:23;6.22;;;5.62;;
16928;SDS011;8581;47.334;11.190;2023-06-26T06:41:54;6.40;;;5.80;;
16928;SDS011;8581;47.334;11.190;2023-06-26T06:44:26;5.78;;;5.17;;
16928;SDS011;8581;47.334;11.190;2023-06-26T06:46:58;6.35;;;5.15;;
16928;SDS011;8581;47.334;11.190;2023-06-26T06:49:29;6.10;;;5.35;;
16928;SDS011;8581;47.334;11.190;2023-06-26T06:52:01;5.85;;;5.30;;
16928;SDS011;8581;47.334;11.190;2023-06-26T06:54:33;5.80;;;5.00;;
16928;SDS011;8581;47.334;11.190;2023-06-26T06:57:04;5.70;;;5.20;;
16928;SDS011;8581;47.334;11.190;2023-06-26T06:59:36;7.08;;;4.90;;
16928;SDS011;8581;47.334;11.190;2023-06-26T07:02:07;7.85;;;5.20;;
16928;SDS011;8581;47.334;11.190;2023-06-26T07:04:39;5.42;;;4.92;;
16928;SDS011;8581;47.334;11.190;2023-06-26T07:07:11;7.85;;;4.65;;
16928;SDS011;8581;47.334;11.190;2023-06-26T07:09:42;5.67;;;5.17;;
16928;SDS011;8581;47.334;11.190;2023-06-26T07:12:14;6.30;;;5.60;;
16928;SDS011;8581;47.334;11.190;2023-06-26T07:14:45;5.05;;;4.65;;
16928;SDS011;8581;47.334;11.190;2023-06-26T07:17:18;7.17;;;5.08;;
16928;SDS011;8581;47.334;11.190;2023-06-26T07:19:49;5.05;;;4.65;;
16928;SDS011;8581;47.334;11.190;2023-06-26T07:22:21;12.43;;;5.37;;
16928;SDS011;8581;47.334;11.190;2023-06-26T07:24:52;5.42;;;4.87;;
16928;SDS011;8581;47.334;11.190;2023-06-26T07:27:25;4.95;;;4.55;;
16928;SDS011;8581;47.334;11.190;2023-06-26T07:30:00;5.45;;;4.33;;
16928;SDS011;8581;47.334;11.190;2023-06-26T07:32:32;4.50;;;4.10;;
16928;SDS011;8581;47.334;11.190;2023-06-26T07:35:04;4.50;;;4.10;;
16928;SDS011;8581;47.334;11.190;2023-06-26T07:37:36;4.97;;;4.28;;
16928;SDS011;8581;47.334;11.190;2023-06-26T07:40:08;8.40;;;4.80;;
16928;SDS011;8581;47.334;11.190;2023-06-26T07:42:41;5.03;;;4.40;;
16928;SDS011;8581;47.334;11.190;2023-06-26T07:45:12;4.92;;;4.20;;
16928;SDS011;8581;47.334;11.190;2023-06-26T07:47:44;4.10;;;3.70;;
16928;SDS011;8581;47.334;11.190;2023-06-26T07:50:19;4.55;;;4.15;;
16928;SDS011;8581;47.334;11.190;2023-06-26T07:52:50;5.08;;;4.15;;
16928;SDS011;8581;47.334;11.190;2023-06-26T07:55:22;5.15;;;4.42;;
16928;SDS011;8581;47.334;11.190;2023-06-26T07:57:54;7.33;;;4.08;;
16928;SDS011;8581;47.334;11.190;2023-06-26T08:00:26;4.05;;;3.75;;
16928;SDS011;8581;47.334;11.190;2023-06-26T08:02:57;5.53;;;3.70;;
16928;SDS011;8581;47.334;11.190;2023-06-26T08:05:29;7.40;;;4.00;;
16928;SDS011;8581;47.334;11.190;2023-06-26T08:08:01;5.65;;;4.12;;
16928;SDS011;8581;47.334;11.190;2023-06-26T08:10:32;3.92;;;3.50;;
16928;SDS011;8581;47.334;11.190;2023-06-26T08:13:04;4.08;;;3.70;;
16928;SDS011;8581;47.334;11.190;2023-06-26T08:15:35;4.08;;;3.67;;
16928;SDS011;8581;47.334;11.190;2023-06-26T08:18:07;6.70;;;3.67;;
16928;SDS011;8581;47.334;11.190;2023-06-26T08:20:39;4.15;;;3.75;;
16928;SDS011;8581;47.334;11.190;2023-06-26T08:23:10;4.12;;;3.33;;
16928;SDS011;8581;47.334;11.190;2023-06-26T08:25:42;3.50;;;3.22;;
16928;SDS011;8581;47.334;11.190;2023-06-26T08:28:14;3.15;;;2.92;;
16928;SDS011;8581;47.334;11.190;2023-06-26T08:30:45;2.92;;;2.70;;
16928;SDS011;8581;47.334;11.190;2023-06-26T08:33:17;4.42;;;2.60;;
16928;SDS011;8581;47.334;11.190;2023-06-26T08:35:49;5.47;;;2.80;;
16928;SDS011;8581;47.334;11.190;2023-06-26T08:38:20;3.12;;;2.92;;
16928;SDS011;8581;47.334;11.190;2023-06-26T08:40:52;3.95;;;3.02;;
16928;SDS011;8581;47.334;11.190;2023-06-26T08:43:23;6.53;;;2.90;;
16928;SDS011;8581;47.334;11.190;2023-06-26T08:45:55;2.70;;;2.50;;
16928;SDS011;8581;47.334;11.190;2023-06-26T08:48:27;2.45;;;2.25;;
16928;SDS011;8581;47.334;11.190;2023-06-26T08:50:59;4.62;;;2.52;;
16928;SDS011;8581;47.334;11.190;2023-06-26T08:53:33;5.62;;;3.00;;
16928;SDS011;8581;47.334;11.190;2023-06-26T08:56:04;4.03;;;2.55;;
16928;SDS011;8581;47.334;11.190;2023-06-26T08:58:36;3.08;;;2.87;;
16928;SDS011;8581;47.334;11.190;2023-06-26T09:01:08;3.25;;;2.55;;
16928;SDS011;8581;47.334;11.190;2023-06-26T09:03:39;3.37;;;2.90;;
16928;SDS011;8581;47.334;11.190;2023-06-26T09:06:11;4.75;;;2.77;;
16928;SDS011;8581;47.334;11.190;2023-06-26T09:08:42;5.00;;;2.70;;
16928;SDS011;8581;47.334;11.190;2023-06-26T09:11:14;3.65;;;2.52;;
16928;SDS011;8581;47.334;11.190;2023-06-26T09:13:46;2.95;;;2.75;;
16928;SDS011;8581;47.334;11.190;2023-06-26T09:16:17;2.90;;;2.70;;
16928;SDS011;8581;47.334;11.190;2023-06-26T09:18:49;4.03;;;3.10;;
16928;SDS011;8581;47.334;11.190;2023-06-26T09:21:21;3.65;;;2.52;;
16928;SDS011;8581;47.334;11.190;2023-06-26T09:23:52;4.33;;;2.85;;
16928;SDS011;8581;47.334;11.190;2023-06-26T09:26:24;2.83;;;2.50;;
16928;SDS011;8581;47.334;11.190;2023-06-26T09:28:55;2.85;;;2.60;;
16928;SDS011;8581;47.334;11.190;2023-06-26T09:31:27;2.83;;;2.62;;
16928;SDS011;8581;47.334;11.190;2023-06-26T09:33:59;2.67;;;2.47;;
16928;SDS011;8581;47.334;11.190;2023-06-26T09:36:30;4.40;;;3.00;;
16928;SDS011;8581;47.334;11.190;2023-06-26T09:39:03;3.02;;;2.55;;
16928;SDS011;8581;47.334;11.190;2023-06-26T09:41:34;2.70;;;2.50;;
16928;SDS011;8581;47.334;11.190;2023-06-26T09:44:06;6.67;;;2.47;;
16928;SDS011;8581;47.334;11.190;2023-06-26T09:46:37;2.90;;;2.70;;
16928;SDS011;8581;47.334;11.190;2023-06-26T09:49:09;4.05;;;3.00;;
16928;SDS011;8581;47.334;11.190;2023-06-26T09:51:43;3.58;;;2.87;;
16928;SDS011;8581;47.334;11.190;2023-06-26T09:54:15;3.08;;;2.87;;
16928;SDS011;8581;47.334;11.190;2023-06-26T09:56:46;3.22;;;3.02;;
16928;SDS011;8581;47.334;11.190;2023-06-26T09:59:18;2.70;;;2.50;;
16928;SDS011;8581;47.334;11.190;2023-06-26T10:01:50;3.52;;;3.22;;
16928;SDS011;8581;47.334;11.190;2023-06-26T10:04:21;4.10;;;2.95;;
16928;SDS011;8581;47.334;11.190;2023-06-26T10:06:54;2.80;;;2.60;;
16928;SDS011;8581;47.334;11.190;2023-06-26T10:09:25;2.70;;;2.50;;
16928;SDS011;8581;47.334;11.190;2023-06-26T10:11:57;2.70;;;2.50;;
16928;SDS011;8581;47.334;11.190;2023-06-26T10:14:35;5.67;;;2.67;;
16928;SDS011;8581;47.334;11.190;2023-06-26T10:17:01;2.52;;;2.42;;
16928;SDS011;8581;47.334;11.190;2023-06-26T10:19:32;3.17;;;2.67;;
16928;SDS011;8581;47.334;11.190;2023-06-26T10:22:03;2.70;;;2.50;;
16928;SDS011;8581;47.334;11.190;2023-06-26T10:24:36;2.65;;;2.50;;
16928;SDS011;8581;47.334;11.190;2023-06-26T10:27:08;2.77;;;2.58;;
16928;SDS011;8581;47.334;11.190;2023-06-26T10:29:40;2.60;;;2.40;;
16928;SDS011;8581;47.334;11.190;2023-06-26T10:32:11;2.80;;;2.60;;
16928;SDS011;8581;47.334;11.190;2023-06-26T10:34:43;26.55;;;4.83;;
16928;SDS011;8581;47.334;11.190;2023-06-26T10:37:14;28.02;;;5.20;;
16928;SDS011;8581;47.334;11.190;2023-06-26T10:39:48;11.03;;;2.62;;
16928;SDS011;8581;47.334;11.190;2023-06-26T10:42:33;2.85;;;2.42;;
16928;SDS011;8581;47.334;11.190;2023-06-26T10:44:52;2.92;;;2.72;;
16928;SDS011;8581;47.334;11.190;2023-06-26T10:47:29;8.45;;;3.02;;
16928;SDS011;8581;47.334;11.190;2023-06-26T10:52:43;3.05;;;2.50;;
16928;SDS011;8581;47.334;11.190;2023-06-26T10:55:15;8.50;;;2.60;;
16928;SDS011;8581;47.334;11.190;2023-06-26T10:57:46;2.70;;;2.50;;
16928;SDS011;8581;47.334;11.190;2023-06-26T11:00:18;5.30;;;2.60;;
16928;SDS011;8581;47.334;11.190;2023-06-26T11:02:50;3.47;;;2.47;;
16928;SDS011;8581;47.334;11.190;2023-06-26T11:05:24;12.90;;;3.10;;
16928;SDS011;8581;47.334;11.190;2023-06-26T11:13:20;2.52;;;2.33;;
16928;SDS011;8581;47.334;11.190;2023-06-26T11:15:51;7.92;;;3.17;;
16928;SDS011;8581;47.334;11.190;2023-06-26T11:18:23;6.42;;;2.52;;
16928;SDS011;8581;47.334;11.190;2023-06-26T11:20:54;3.20;;;2.90;;
16928;SDS011;8581;47.334;11.190;2023-06-26T11:23:26;2.62;;;2.42;;
16928;SDS011;8581;47.334;11.190;2023-06-26T11:25:58;2.58;;;2.47;;
16928;SDS011;8581;47.334;11.190;2023-06-26T11:28:29;2.77;;;2.58;;
16928;SDS011;8581;47.334;11.190;2023-06-26T11:31:01;2.92;;;2.60;;
16928;SDS011;8581;47.334;11.190;2023-06-26T11:33:32;2.55;;;2.35;;
16928;SDS011;8581;47.334;11.190;2023-06-26T11:36:08;2.45;;;2.35;;
16928;SDS011;8581;47.334;11.190;2023-06-26T11:38:40;6.17;;;2.92;;
16928;SDS011;8581;47.334;11.190;2023-06-26T11:41:16;11.68;;;2.95;;
16928;SDS011;8581;47.334;11.190;2023-06-26T11:43:43;5.17;;;2.80;;
16928;SDS011;8581;47.334;11.190;2023-06-26T11:46:17;8.03;;;2.95;;
16928;SDS011;8581;47.334;11.190;2023-06-26T11:48:49;3.15;;;2.60;;
16928;SDS011;8581;47.334;11.190;2023-06-26T11:51:20;5.83;;;2.55;;
16928;SDS011;8581;47.334;11.190;2023-06-26T11:53:52;8.68;;;3.25;;
16928;SDS011;8581;47.334;11.190;2023-06-26T11:56:24;76.05;;;7.65;;
16928;SDS011;8581;47.334;11.190;2023-06-26T11:59:06;3.17;;;2.98;;
16928;SDS011;8581;47.334;11.190;2023-06-26T12:01:38;2.90;;;2.70;;
16928;SDS011;8581;47.334;11.190;2023-06-26T12:04:10;3.00;;;2.80;;
16928;SDS011;8581;47.334;11.190;2023-06-26T12:06:42;3.27;;;2.92;;
16928;SDS011;8581;47.334;11.190;2023-06-26T12:09:13;5.40;;;2.72;;
16928;SDS011;8581;47.334;11.190;2023-06-26T12:11:46;3.22;;;2.83;;
16928;SDS011;8581;47.334;11.190;2023-06-26T12:14:17;2.80;;;2.60;;
16928;SDS011;8581;47.334;11.190;2023-06-26T12:16:48;3.90;;;3.08;;
16928;SDS011;8581;47.334;11.190;2023-06-26T12:19:25;3.58;;;2.83;;
16928;SDS011;8581;47.334;11.190;2023-06-26T12:21:57;2.95;;;2.75;;
16928;SDS011;8581;47.334;11.190;2023-06-26T12:24:29;3.60;;;2.77;;
16928;SDS011;8581;47.334;11.190;2023-06-26T12:27:00;3.12;;;2.80;;
16928;SDS011;8581;47.334;11.190;2023-06-26T12:29:32;86.80;;;8.45;;
16928;SDS011;8581;47.334;11.190;2023-06-26T12:32:04;3.12;;;2.80;;
16928;SDS011;8581;47.334;11.190;2023-06-26T12:34:37;6.03;;;3.12;;
16928;SDS011;8581;47.334;11.190;2023-06-26T12:37:10;3.25;;;2.92;;
16928;SDS011;8581;47.334;11.190;2023-06-26T12:42:18;3.47;;;3.17;;
16928;SDS011;8581;47.334;11.190;2023-06-26T12:44:50;3.58;;;3.25;;
16928;SDS011;8581;47.334;11.190;2023-06-26T12:47:23;3.33;;;3.12;;
16928;SDS011;8581;47.334;11.190;2023-06-26T12:49:54;3.65;;;3.00;;
16928;SDS011;8581;47.334;11.190;2023-06-26T12:52:26;12.10;;;4.12;;
16928;SDS011;8581;47.334;11.190;2023-06-26T12:54:58;5.58;;;3.50;;
16928;SDS011;8581;47.334;11.190;2023-06-26T12:57:29;4.80;;;3.67;;
16928;SDS011;8581;47.334;11.190;2023-06-26T13:00:01;3.37;;;3.15;;
16928;SDS011;8581;47.334;11.190;2023-06-26T13:02:32;3.90;;;3.52;;
16928;SDS011;8581;47.334;11.190;2023-06-26T13:05:04;3.75;;;3.47;;
16928;SDS011;8581;47.334;11.190;2023-06-26T13:07:36;4.90;;;3.65;;
16928;SDS011;8581;47.334;11.190;2023-06-26T13:10:08;3.72;;;3.40;;
16928;SDS011;8581;47.334;11.190;2023-06-26T13:12:39;5.15;;;3.65;;
16928;SDS011;8581;47.334;11.190;2023-06-26T13:15:11;4.00;;;3.60;;
16928;SDS011;8581;47.334;11.190;2023-06-26T13:17:42;3.83;;;3.58;;
16928;SDS011;8581;47.334;11.190;2023-06-26T13:20:14;5.58;;;3.85;;
16928;SDS011;8581;47.334;11.190;2023-06-26T13:22:46;3.85;;;3.40;;
16928;SDS011;8581;47.334;11.190;2023-06-26T13:25:17;34.03;;;5.80;;
16928;SDS011;8581;47.334;11.190;2023-06-26T13:27:49;4.35;;;3.40;;
16928;SDS011;8581;47.334;11.190;2023-06-26T13:30:21;4.03;;;3.62;;
16928;SDS011;8581;47.334;11.190;2023-06-26T13:32:52;3.62;;;3.42;;
16928;SDS011;8581;47.334;11.190;2023-06-26T13:35:24;3.95;;;3.65;;
16928;SDS011;8581;47.334;11.190;2023-06-26T13:37:55;3.90;;;3.60;;
16928;SDS011;8581;47.334;11.190;2023-06-26T13:40:27;4.00;;;3.70;;
16928;SDS011;8581;47.334;11.190;2023-06-26T13:42:59;4.72;;;3.85;;
16928;SDS011;8581;47.334;11.190;2023-06-26T13:45:30;4.00;;;3.70;;
16928;SDS011;8581;47.334;11.190;2023-06-26T13:48:02;5.42;;;3.77;;
16928;SDS011;8581;47.334;11.190;2023-06-26T13:50:33;4.22;;;3.92;;
16928;SDS011;8581;47.334;11.190;2023-06-26T13:53:05;3.98;;;3.67;;
16928;SDS011;8581;47.334;11.190;2023-06-26T13:55:36;4.17;;;3.75;;
16928;SDS011;8581;47.334;11.190;2023-06-26T13:58:08;4.08;;;3.77;;
16928;SDS011;8581;47.334;11.190;2023-06-26T14:00:40;6.40;;;3.92;;
16928;SDS011;8581;47.334;11.190;2023-06-26T14:03:11;4.15;;;3.85;;
16928;SDS011;8581;47.334;11.190;2023-06-26T14:05:43;4.33;;;3.92;;
16928;SDS011;8581;47.334;11.190;2023-06-26T14:08:14;5.42;;;3.80;;
16928;SDS011;8581;47.334;11.190;2023-06-26T14:10:46;4.50;;;4.10;;
16928;SDS011;8581;47.334;11.190;2023-06-26T14:13:18;4.20;;;3.70;;
16928;SDS011;8581;47.334;11.190;2023-06-26T14:15:50;4.87;;;3.87;;
16928;SDS011;8581;47.334;11.190;2023-06-26T14:18:23;5.33;;;4.05;;
16928;SDS011;8581;47.334;11.190;2023-06-26T14:20:55;5.35;;;3.90;;
16928;SDS011;8581;47.334;11.190;2023-06-26T14:23:26;8.40;;;4.00;;
16928;SDS011;8581;47.334;11.190;2023-06-26T14:25:58;6.78;;;3.90;;
16928;SDS011;8581;47.334;11.190;2023-06-26T14:28:29;5.62;;;4.03;;
16928;SDS011;8581;47.334;11.190;2023-06-26T14:31:01;4.15;;;3.67;;
16928;SDS011;8581;47.334;11.190;2023-06-26T14:33:33;4.60;;;4.30;;
16928;SDS011;8581;47.334;11.190;2023-06-26T14:36:04;29.98;;;5.47;;
16928;SDS011;8581;47.334;11.190;2023-06-26T14:38:36;4.47;;;4.17;;
16928;SDS011;8581;47.334;11.190;2023-06-26T14:41:07;4.50;;;4.20;;
16928;SDS011;8581;47.334;11.190;2023-06-26T14:43:39;6.47;;;4.10;;
16928;SDS011;8581;47.334;11.190;2023-06-26T14:46:11;27.35;;;5.58;;
16928;SDS011;8581;47.334;11.190;2023-06-26T14:48:42;4.20;;;3.90;;
16928;SDS011;8581;47.334;11.190;2023-06-26T14:51:14;5.28;;;4.17;;
16928;SDS011;8581;47.334;11.190;2023-06-26T14:53:45;4.15;;;3.85;;
16928;SDS011;8581;47.334;11.190;2023-06-26T14:56:17;4.30;;;3.90;;
16928;SDS011;8581;47.334;11.190;2023-06-26T14:58:49;4.70;;;4.30;;
16928;SDS011;8581;47.334;11.190;2023-06-26T15:01:20;4.58;;;4.17;;
16928;SDS011;8581;47.334;11.190;2023-06-26T15:03:52;4.67;;;4.28;;
16928;SDS011;8581;47.334;11.190;2023-06-26T15:06:24;5.17;;;4.12;;
16928;SDS011;8581;47.334;11.190;2023-06-26T15:08:55;7.30;;;4.28;;
16928;SDS011;8581;47.334;11.190;2023-06-26T15:11:27;4.92;;;4.53;;
16928;SDS011;8581;47.334;11.190;2023-06-26T15:13:58;4.92;;;4.62;;
16928;SDS011;8581;47.334;11.190;2023-06-26T15:16:30;5.22;;;4.40;;
16928;SDS011;8581;47.334;11.190;2023-06-26T15:19:02;4.80;;;4.40;;
16928;SDS011;8581;47.334;11.190;2023-06-26T15:21:33;7.45;;;4.87;;
16928;SDS011;8581;47.334;11.190;2023-06-26T15:24:05;7.00;;;4.95;;
16928;SDS011;8581;47.334;11.190;2023-06-26T15:26:38;4.50;;;4.20;;
16928;SDS011;8581;47.334;11.190;2023-06-26T15:29:09;7.45;;;4.47;;